Time;durP1;ratioP1;P1;durP2;ratioP2;P2;SDS_P1;SDS_P2;PMS_P1;PMS_P2;Temp;Humidity;BMP_temperature;BMP_pressure;BME280_temperature;BME280_humidity;BME280_pressure;Samples;Min_cycle;Max_cycle;Signal;HPM_P1;HPM_P2
2023/06/16 00:01:47;;;;;;;6.03;4.00;;;27.00;55.70;;;;;;5045511;28;20061;-74
2023/06/16 00:04:17;;;;;;;8.65;3.83;;;27.00;55.70;;;;;;5033013;28;20082;-75
2023/06/16 00:06:46;;;;;;;6.22;3.58;;;26.80;55.10;;;;;;5071727;28;20036;-75
2023/06/16 00:09:13;;;;;;;5.50;4.05;;;26.90;55.10;;;;;;5048710;28;20033;-75
2023/06/16 00:11:39;;;;;;;5.50;3.40;;;26.80;55.20;;;;;;5033108;28;20034;-75
2023/06/16 00:14:05;;;;;;;4.43;3.53;;;26.90;55.30;;;;;;5047745;28;20060;-75
2023/06/16 00:16:32;;;;;;;4.72;3.90;;;26.90;55.30;;;;;;5064420;28;20848;-75
2023/06/16 00:18:59;;;;;;;4.78;3.92;;;26.90;55.30;;;;;;5033199;28;20033;-75
2023/06/16 00:21:35;;;;;;;6.65;3.65;;;26.90;55.30;;;;;;5051658;28;20101;-74
2023/06/16 00:24:02;;;;;;;7.03;4.13;;;26.90;55.40;;;;;;5051400;28;20037;-75
2023/06/16 00:26:28;;;;;;;7.07;3.55;;;26.80;55.30;;;;;;5043057;28;20457;-74
2023/06/16 00:28:54;;;;;;;6.25;4.15;;;26.80;55.40;;;;;;5035211;28;20484;-75
2023/06/16 00:31:21;;;;;;;9.40;3.90;;;26.90;55.40;;;;;;5048929;28;20029;-74
2023/06/16 00:33:46;;;;;;;4.30;3.55;;;26.90;55.40;;;;;;5034382;28;20075;-75
2023/06/16 00:36:15;;;;;;;4.72;3.67;;;26.90;55.40;;;;;;5055974;28;20068;-75
2023/06/16 00:38:41;;;;;;;3.90;3.50;;;27.10;56.00;;;;;;5034957;28;20064;-75
2023/06/16 00:41:08;;;;;;;4.07;3.67;;;26.80;55.40;;;;;;5034511;28;20413;-75
2023/06/16 00:43:35;;;;;;;5.15;3.65;;;26.80;55.40;;;;;;5047614;28;20033;-75
2023/06/16 00:46:02;;;;;;;5.40;4.07;;;26.90;55.40;;;;;;5037472;28;20037;-75
2023/06/16 00:48:28;;;;;;;4.43;3.38;;;26.80;55.40;;;;;;5049719;28;20088;-75
2023/06/16 00:50:55;;;;;;;4.55;3.92;;;26.90;55.40;;;;;;5022192;28;20083;-75
2023/06/16 00:53:22;;;;;;;5.60;4.13;;;26.80;55.40;;;;;;5030140;28;20049;-75
2023/06/16 00:55:48;;;;;;;4.90;3.58;;;26.90;55.40;;;;;;5029938;28;20362;-75
2023/06/16 00:58:17;;;;;;;5.88;3.85;;;26.80;55.40;;;;;;5014650;28;20132;-75
2023/06/16 01:00:45;;;;;;;4.13;3.45;;;26.80;55.40;;;;;;5029222;28;20167;-75
2023/06/16 01:03:13;;;;;;;6.18;3.92;;;26.90;55.40;;;;;;5049196;28;20177;-75
2023/06/16 01:05:40;;;;;;;6.50;4.07;;;26.80;55.40;;;;;;5021081;28;20501;-75
2023/06/16 01:08:37;;;;;;;4.50;3.65;;;26.70;55.40;;;;;;5013689;28;20033;-75
2023/06/16 01:11:12;;;;;;;4.40;3.58;;;26.70;55.50;;;;;;5027131;28;20037;-75
2023/06/16 01:14:01;;;;;;;5.43;2.63;;;26.80;55.50;;;;;;5028732;28;20048;-75
2023/06/16 01:16:31;;;;;;;5.75;4.15;;;26.70;55.60;;;;;;5027830;28;20112;-76
2023/06/16 01:19:02;;;;;;;6.10;3.45;;;26.70;55.60;;;;;;5049727;28;20033;-76
2023/06/16 01:21:52;;;;;;;6.28;4.40;;;26.80;55.60;;;;;;5021287;28;20116;-75
2023/06/16 01:24:23;;;;;;;8.65;4.18;;;26.70;55.60;;;;;;5064798;28;20036;-76
2023/06/16 01:26:53;;;;;;;3.85;3.30;;;26.80;55.60;;;;;;5062586;28;20033;-77
2023/06/16 01:29:25;;;;;;;5.10;3.95;;;26.90;55.70;;;;;;5044191;28;20037;-75
2023/06/16 01:31:58;;;;;;;7.70;4.43;;;26.80;55.70;;;;;;5062303;28;20033;-75
2023/06/16 01:34:26;;;;;;;6.97;4.35;;;26.80;55.70;;;;;;5051215;28;20033;-76
2023/06/16 01:36:54;;;;;;;6.57;4.03;;;26.90;55.70;;;;;;5060147;28;20121;-76
2023/06/16 01:39:21;;;;;;;7.05;4.60;;;26.90;55.70;;;;;;5062893;28;20534;-75
2023/06/16 01:41:49;;;;;;;7.68;3.83;;;26.80;55.70;;;;;;5048033;28;20472;-75
2023/06/16 01:44:17;;;;;;;7.38;4.18;;;26.90;55.70;;;;;;5065410;28;20067;-76
2023/06/16 01:46:45;;;;;;;4.93;4.03;;;26.80;55.60;;;;;;5053695;28;20116;-76
2023/06/16 01:49:11;;;;;;;6.45;3.97;;;26.90;55.60;;;;;;5029298;28;20087;-75
2023/06/16 01:51:38;;;;;;;6.78;4.13;;;26.70;55.60;;;;;;5052215;28;20456;-75
2023/06/16 01:54:04;;;;;;;7.40;3.65;;;26.90;55.60;;;;;;5044237;28;20108;-75
2023/06/16 01:56:30;;;;;;;4.15;3.58;;;26.80;55.60;;;;;;5045570;28;20096;-76
2023/06/16 01:58:56;;;;;;;5.47;4.05;;;26.70;55.60;;;;;;5042041;28;20044;-76
2023/06/16 02:01:29;;;;;;;6.72;4.03;;;26.80;55.80;;;;;;5048292;28;20057;-76
2023/06/16 02:04:14;;;;;;;6.10;4.22;;;26.80;55.80;;;;;;5013361;28;20037;-76
2023/06/16 02:06:46;;;;;;;4.88;3.70;;;26.80;55.80;;;;;;5032168;28;20048;-75
2023/06/16 02:09:16;;;;;;;4.18;2.50;;;26.80;55.80;;;;;;5048457;28;20433;-76
2023/06/16 02:11:43;;;;;;;5.25;3.63;;;26.60;55.80;;;;;;5068795;28;20123;-76
2023/06/16 02:14:10;;;;;;;7.00;4.13;;;26.70;55.90;;;;;;5051259;28;20046;-75
2023/06/16 02:16:44;;;;;;;5.57;3.60;;;26.70;55.90;;;;;;5041684;28;20120;-75
2023/06/16 02:19:14;;;;;;;6.82;3.97;;;26.70;55.90;;;;;;5048285;28;20037;-75
2023/06/16 02:21:44;;;;;;;4.65;3.08;;;26.90;55.90;;;;;;5038012;28;20067;-76
2023/06/16 02:24:10;;;;;;;3.88;3.47;;;26.70;55.90;;;;;;5043925;28;20465;-76
2023/06/16 02:26:37;;;;;;;3.65;3.22;;;26.80;55.80;;;;;;5069950;28;20468;-75
2023/06/16 02:29:04;;;;;;;4.18;3.53;;;26.70;55.80;;;;;;5055871;28;20025;-76
2023/06/16 02:31:30;;;;;;;7.35;4.13;;;26.80;55.80;;;;;;5065507;28;20481;-75
2023/06/16 02:33:56;;;;;;;4.70;3.60;;;26.70;55.80;;;;;;5050329;28;20036;-75
2023/06/16 02:36:23;;;;;;;5.40;3.85;;;26.80;55.80;;;;;;5050177;28;20028;-75
2023/06/16 02:38:51;;;;;;;8.10;4.25;;;26.80;55.70;;;;;;5064738;28;20014;-75
2023/06/16 02:41:17;;;;;;;4.25;3.47;;;26.80;55.70;;;;;;5052670;28;20477;-75
2023/06/16 02:43:44;;;;;;;6.85;3.33;;;26.80;55.70;;;;;;5041308;28;20036;-75
2023/06/16 02:46:10;;;;;;;6.13;4.00;;;26.80;55.70;;;;;;5062056;28;20024;-76
2023/06/16 02:48:37;;;;;;;5.07;3.90;;;26.60;55.70;;;;;;5060653;28;20086;-75
2023/06/16 02:51:03;;;;;;;8.75;4.43;;;26.80;55.80;;;;;;5051956;28;20036;-76
2023/06/16 02:53:30;;;;;;;5.95;3.92;;;26.70;55.80;;;;;;5033724;28;20112;-76
2023/06/16 02:55:58;;;;;;;5.60;4.28;;;26.70;55.80;;;;;;5050364;28;20025;-75
2023/06/16 02:58:25;;;;;;;5.15;3.85;;;26.60;55.90;;;;;;5046403;28;20037;-76
2023/06/16 03:00:51;;;;;;;7.20;4.38;;;26.70;55.90;;;;;;5073555;28;20516;-76
2023/06/16 03:03:25;;;;;;;7.68;4.18;;;26.80;55.90;;;;;;5067931;28;20091;-75
2023/06/16 03:06:02;;;;;;;8.15;3.38;;;26.70;55.90;;;;;;5062751;28;20197;-76
2023/06/16 03:08:32;;;;;;;6.78;4.00;;;26.90;55.90;;;;;;5065542;28;20029;-76
2023/06/16 03:10:57;;;;;;;8.85;4.13;;;26.80;55.90;;;;;;5050668;28;20048;-76
2023/06/16 03:13:30;;;;;;;10.13;4.65;;;26.80;56.00;;;;;;5047304;28;20052;-76
2023/06/16 03:15:56;;;;;;;7.45;4.20;;;26.80;56.00;;;;;;5035050;28;20056;-76
2023/06/16 03:18:23;;;;;;;7.60;3.92;;;26.80;56.00;;;;;;5029924;28;20564;-76
2023/06/16 03:20:49;;;;;;;4.28;3.60;;;26.70;56.00;;;;;;5048131;28;20173;-75
2023/06/16 03:23:21;;;;;;;5.75;3.97;;;26.70;56.00;;;;;;5044069;28;20104;-76
2023/06/16 03:25:47;;;;;;;5.57;4.05;;;26.70;56.00;;;;;;5046445;28;20045;-76
2023/06/16 03:28:17;;;;;;;6.00;3.88;;;26.70;56.00;;;;;;5034819;28;20047;-75
2023/06/16 03:30:44;;;;;;;5.60;3.28;;;26.60;56.00;;;;;;5066844;28;20032;-76
2023/06/16 03:33:15;;;;;;;4.15;3.35;;;26.70;55.90;;;;;;5049681;28;20854;-75
2023/06/16 03:35:45;;;;;;;3.67;3.10;;;26.70;55.90;;;;;;5035025;28;20025;-75
2023/06/16 03:38:22;;;;;;;5.45;3.05;;;26.70;55.90;;;;;;5049620;28;20036;-75
2023/06/16 03:40:51;;;;;;;5.97;3.22;;;26.60;55.90;;;;;;5014655;28;20041;-75
2023/06/16 03:43:17;;;;;;;3.45;3.15;;;26.70;55.90;;;;;;5014424;28;20057;-75
2023/06/16 03:45:43;;;;;;;3.45;2.38;;;26.60;55.90;;;;;;5027716;28;20042;-75
2023/06/16 03:48:09;;;;;;;2.88;2.42;;;26.60;56.00;;;;;;5019171;28;20121;-76
2023/06/16 03:50:43;;;;;;;1.83;1.52;;;26.60;56.00;;;;;;5015302;28;20444;-76
2023/06/16 03:53:10;;;;;;;1.83;1.20;;;26.50;56.00;;;;;;5015531;28;20033;-76
2023/06/16 03:55:36;;;;;;;1.80;1.63;;;26.70;56.10;;;;;;5030816;28;20044;-75
2023/06/16 03:58:03;;;;;;;1.27;1.15;;;26.70;56.10;;;;;;5042098;28;20049;-75
2023/06/16 04:00:29;;;;;;;3.50;2.95;;;26.70;56.10;;;;;;5031624;28;20148;-76
2023/06/16 04:02:56;;;;;;;3.95;2.97;;;26.70;56.10;;;;;;5033404;28;20041;-76
2023/06/16 04:05:26;;;;;;;1.52;1.42;;;26.70;56.10;;;;;;5015518;28;20123;-76
2023/06/16 04:07:55;;;;;;;0.95;0.95;;;26.70;56.10;;;;;;5030920;28;20064;-75
2023/06/16 04:10:21;;;;;;;3.58;2.78;;;26.70;56.10;;;;;;5031881;28;20596;-75
2023/06/16 04:12:47;;;;;;;3.90;3.15;;;26.70;56.10;;;;;;5032120;28;20072;-76
2023/06/16 04:15:13;;;;;;;7.57;3.13;;;26.70;56.10;;;;;;5051595;28;20210;-76
2023/06/16 04:17:40;;;;;;;4.82;3.65;;;26.70;56.10;;;;;;5066999;28;20047;-76
2023/06/16 04:20:10;;;;;;;4.72;3.38;;;26.70;56.00;;;;;;5045511;28;20040;-75
2023/06/16 04:22:38;;;;;;;6.43;3.40;;;26.60;56.00;;;;;;5054754;28;20442;-76
2023/06/16 04:25:05;;;;;;;4.88;3.20;;;26.70;56.00;;;;;;5060612;28;20044;-75
2023/06/16 04:27:33;;;;;;;2.80;2.40;;;26.70;56.00;;;;;;5071686;28;20043;-74
2023/06/16 04:30:03;;;;;;;4.10;3.00;;;26.70;56.00;;;;;;5040468;28;20033;-75
2023/06/16 04:32:34;;;;;;;4.78;3.65;;;26.70;56.00;;;;;;5031784;28;20500;-75
2023/06/16 04:35:06;;;;;;;6.05;3.80;;;26.70;56.00;;;;;;5037713;28;20028;-75
2023/06/16 04:37:34;;;;;;;4.82;3.47;;;26.60;55.90;;;;;;5013259;28;20038;-75
2023/06/16 04:40:02;;;;;;;1.58;1.45;;;26.70;55.90;;;;;;5003674;28;20040;-75
2023/06/16 04:42:28;;;;;;;1.55;0.95;;;26.60;56.00;;;;;;4998210;28;20124;-75
2023/06/16 04:44:55;;;;;;;0.70;0.70;;;26.70;56.10;;;;;;4994566;28;20041;-76
2023/06/16 04:47:22;;;;;;;0.68;0.68;;;26.60;56.10;;;;;;4994852;28;20043;-77
2023/06/16 04:49:49;;;;;;;0.77;0.77;;;26.70;56.10;;;;;;5012395;28;20179;-77
2023/06/16 04:52:15;;;;;;;1.05;0.82;;;26.60;56.60;;;;;;4995025;28;20064;-77
2023/06/16 04:54:41;;;;;;;0.88;0.88;;;26.70;56.70;;;;;;5011571;28;20474;-77
2023/06/16 04:57:09;;;;;;;1.00;1.00;;;26.70;56.70;;;;;;5026573;28;20276;-76
2023/06/16 04:59:36;;;;;;;1.45;1.35;;;26.70;56.80;;;;;;5006771;28;20041;-76
2023/06/16 05:02:02;;;;;;;0.90;0.90;;;26.70;56.80;;;;;;5000450;28;20076;-76
2023/06/16 05:04:28;;;;;;;2.67;1.63;;;26.70;56.80;;;;;;5015807;28;20050;-77
2023/06/16 05:06:54;;;;;;;4.00;1.73;;;26.70;56.70;;;;;;5035558;28;20036;-77
2023/06/16 05:09:21;;;;;;;3.83;2.50;;;26.60;56.60;;;;;;5065254;28;20053;-77
2023/06/16 05:11:48;;;;;;;3.25;2.10;;;26.80;56.50;;;;;;5071555;28;20032;-77
2023/06/16 05:14:14;;;;;;;2.75;2.47;;;26.60;56.40;;;;;;5071065;28;20040;-77
2023/06/16 05:16:41;;;;;;;4.45;3.47;;;26.70;56.40;;;;;;5031784;28;20037;-77
2023/06/16 05:19:08;;;;;;;3.30;3.00;;;26.70;56.40;;;;;;5030972;28;20033;-77
2023/06/16 05:21:38;;;;;;;3.55;2.67;;;26.60;56.40;;;;;;5044582;28;20063;-77
2023/06/16 05:24:05;;;;;;;4.93;2.72;;;26.70;56.30;;;;;;5051258;28;20401;-77
2023/06/16 05:26:31;;;;;;;5.68;3.13;;;26.70;56.30;;;;;;5051281;28;20036;-77
2023/06/16 05:28:57;;;;;;;3.65;3.30;;;26.60;56.30;;;;;;5034473;28;20044;-77
2023/06/16 05:31:25;;;;;;;4.13;3.20;;;26.60;56.20;;;;;;5030174;28;20118;-78
2023/06/16 05:33:51;;;;;;;6.53;3.85;;;26.70;56.20;;;;;;5025121;28;20044;-77
2023/06/16 05:36:17;;;;;;;6.20;3.67;;;26.60;56.20;;;;;;5039436;28;20032;-77
2023/06/16 05:38:44;;;;;;;4.05;3.45;;;26.60;56.20;;;;;;5015669;28;20033;-77
2023/06/16 05:41:11;;;;;;;5.38;4.03;;;26.70;56.20;;;;;;5030376;28;20065;-76
2023/06/16 05:43:42;;;;;;;3.63;3.22;;;26.50;56.30;;;;;;5035551;28;20040;-76
2023/06/16 05:46:08;;;;;;;5.22;3.40;;;26.60;56.40;;;;;;5045121;28;20478;-76
2023/06/16 05:48:35;;;;;;;4.80;3.58;;;26.60;56.40;;;;;;5042987;28;20433;-75
2023/06/16 05:51:01;;;;;;;4.25;3.60;;;26.70;56.40;;;;;;5046961;28;20025;-77
2023/06/16 05:53:27;;;;;;;4.38;3.55;;;26.60;56.30;;;;;;5068649;28;20040;-76
2023/06/16 05:55:53;;;;;;;5.00;4.15;;;26.80;58.30;;;;;;5056400;28;20025;-76
2023/06/16 05:58:19;;;;;;;4.28;3.72;;;26.80;57.90;;;;;;5041490;28;20037;-77
2023/06/16 06:00:47;;;;;;;5.45;4.40;;;26.70;58.20;;;;;;5037546;28;20030;-75
2023/06/16 06:03:16;;;;;;;4.75;4.18;;;26.90;59.00;;;;;;5040309;28;20139;-75
2023/06/16 06:05:43;;;;;;;5.15;4.43;;;26.90;59.40;;;;;;5026936;28;20052;-77
2023/06/16 06:08:11;;;;;;;13.65;9.93;;;26.90;59.50;;;;;;5045887;28;20107;-76
2023/06/16 06:10:38;;;;;;;5.45;4.63;;;27.00;61.80;;;;;;5037684;28;20053;-76
2023/06/16 06:13:05;;;;;;;6.82;4.95;;;27.00;60.30;;;;;;5034319;28;20041;-76
2023/06/16 06:15:33;;;;;;;12.80;6.10;;;27.10;62.50;;;;;;5077572;28;20071;-76
2023/06/16 06:18:05;;;;;;;16.20;7.63;;;27.10;64.80;;;;;;5056497;28;20106;-74
2023/06/16 06:20:34;;;;;;;12.88;9.20;;;27.30;67.80;;;;;;5070608;28;20044;-76
2023/06/16 06:23:00;;;;;;;12.98;8.80;;;27.40;66.10;;;;;;5036498;28;20073;-68
2023/06/16 06:25:27;;;;;;;17.15;14.02;;;27.40;68.10;;;;;;5051247;28;20030;-75
2023/06/16 06:27:53;;;;;;;20.77;13.55;;;27.50;64.30;;;;;;5065435;28;20033;-74
2023/06/16 06:30:19;;;;;;;25.15;15.77;;;27.50;62.60;;;;;;5061275;28;20042;-74
2023/06/16 06:32:45;;;;;;;21.73;14.07;;;27.50;62.90;;;;;;5039958;28;20074;-74
2023/06/16 06:35:11;;;;;;;7.75;6.25;;;27.50;61.00;;;;;;5046964;28;20047;-74
2023/06/16 06:37:38;;;;;;;8.00;4.68;;;27.40;59.00;;;;;;5041850;28;20112;-74
2023/06/16 06:40:05;;;;;;;6.70;4.07;;;27.40;56.90;;;;;;5067044;28;20080;-74
2023/06/16 06:42:32;;;;;;;6.82;5.20;;;27.30;57.50;;;;;;5047522;28;20044;-72
2023/06/16 06:44:58;;;;;;;5.93;4.53;;;27.30;56.90;;;;;;5056188;28;20032;-76
2023/06/16 06:47:24;;;;;;;6.88;5.22;;;27.20;57.60;;;;;;5056975;28;20033;-76
2023/06/16 06:49:55;;;;;;;5.38;3.70;;;27.30;57.10;;;;;;5047803;28;20099;-76
2023/06/16 06:52:21;;;;;;;5.38;4.40;;;27.20;57.70;;;;;;5054609;28;20476;-76
2023/06/16 06:54:47;;;;;;;4.15;3.72;;;27.20;57.70;;;;;;5048970;28;20448;-75
2023/06/16 06:57:14;;;;;;;5.63;4.05;;;27.40;56.90;;;;;;5050457;28;20057;-75
2023/06/16 06:59:41;;;;;;;7.28;4.45;;;27.20;55.80;;;;;;5049578;28;20116;-75
2023/06/16 07:02:08;;;;;;;6.10;3.13;;;27.30;54.90;;;;;;5045100;28;20116;-76
2023/06/16 07:04:35;;;;;;;3.92;3.35;;;27.20;53.80;;;;;;5061548;28;20102;-76
2023/06/16 07:07:02;;;;;;;7.72;3.97;;;27.10;53.10;;;;;;5047831;28;20433;-75
2023/06/16 07:09:28;;;;;;;6.45;3.85;;;27.10;53.10;;;;;;5052480;28;20116;-75
2023/06/16 07:11:54;;;;;;;9.25;4.03;;;27.10;53.30;;;;;;5051138;28;20113;-75
2023/06/16 07:14:20;;;;;;;5.30;3.60;;;27.10;53.00;;;;;;5047473;28;20061;-76
2023/06/16 07:16:46;;;;;;;3.50;3.08;;;27.10;53.00;;;;;;5046190;28;20477;-78
2023/06/16 07:19:12;;;;;;;5.13;3.92;;;27.10;52.90;;;;;;5069748;28;20020;-77
2023/06/16 07:21:38;;;;;;;7.53;4.18;;;27.10;52.70;;;;;;5056482;28;20083;-76
2023/06/16 07:24:06;;;;;;;11.73;5.30;;;27.20;52.60;;;;;;5049032;28;20044;-77
2023/06/16 07:26:32;;;;;;;7.03;4.30;;;27.10;53.30;;;;;;5056352;28;20083;-77
2023/06/16 07:28:58;;;;;;;4.90;4.00;;;27.10;53.60;;;;;;5043072;28;20490;-74
2023/06/16 07:31:24;;;;;;;4.07;2.80;;;27.10;53.50;;;;;;5058063;28;20029;-72
2023/06/16 07:33:50;;;;;;;6.05;3.65;;;27.30;53.50;;;;;;5051121;28;20485;-74
2023/06/16 07:36:16;;;;;;;6.95;4.35;;;27.30;53.50;;;;;;5043271;28;20057;-74
2023/06/16 07:38:42;;;;;;;7.97;4.60;;;27.30;53.60;;;;;;5065915;28;20071;-74
2023/06/16 07:41:08;;;;;;;6.70;3.13;;;27.30;54.30;;;;;;5053254;28;20061;-74
2023/06/16 07:43:35;;;;;;;5.13;3.53;;;27.30;54.30;;;;;;5039838;28;20511;-75
2023/06/16 07:46:01;;;;;;;5.75;3.60;;;27.30;54.20;;;;;;5044684;28;20361;-75
2023/06/16 07:48:27;;;;;;;5.07;3.28;;;27.40;54.10;;;;;;5049614;28;20024;-74
2023/06/16 07:50:53;;;;;;;3.78;2.85;;;27.30;54.00;;;;;;5054946;28;20083;-74
2023/06/16 07:53:20;;;;;;;7.07;3.58;;;27.30;54.00;;;;;;5053838;28;20041;-74
2023/06/16 07:55:46;;;;;;;4.80;3.17;;;27.50;54.00;;;;;;5045795;28;20025;-74
2023/06/16 07:58:12;;;;;;;4.85;3.05;;;27.30;54.10;;;;;;5041875;28;20677;-73
2023/06/16 08:00:38;;;;;;;3.97;3.20;;;27.40;54.20;;;;;;5032468;28;20099;-73
2023/06/16 08:03:04;;;;;;;6.88;3.00;;;27.40;54.20;;;;;;5052038;28;20120;-74
2023/06/16 08:05:30;;;;;;;4.60;3.17;;;27.40;54.10;;;;;;5047080;28;20032;-73
2023/06/16 08:07:56;;;;;;;4.65;3.60;;;27.40;54.20;;;;;;5040477;28;20033;-73
2023/06/16 08:10:23;;;;;;;8.25;3.60;;;27.50;54.40;;;;;;5048120;28;22090;-72
2023/06/16 08:12:51;;;;;;;5.45;3.83;;;27.50;54.60;;;;;;5041323;28;20035;-71
2023/06/16 08:15:18;;;;;;;3.42;3.13;;;27.60;54.50;;;;;;5033756;28;20021;-74
2023/06/16 08:17:44;;;;;;;3.75;2.95;;;27.50;54.60;;;;;;5039378;28;20033;-75
2023/06/16 08:20:11;;;;;;;3.67;3.10;;;27.40;54.70;;;;;;5032015;28;20833;-74
2023/06/16 08:22:37;;;;;;;8.05;3.55;;;27.40;54.70;;;;;;5049982;28;20056;-74
2023/06/16 08:25:05;;;;;;;5.90;3.15;;;27.50;54.60;;;;;;5053068;28;20053;-75
2023/06/16 08:27:31;;;;;;;3.78;2.95;;;27.50;54.60;;;;;;5049216;28;20052;-75
2023/06/16 08:29:57;;;;;;;5.53;3.72;;;27.60;54.50;;;;;;5053270;28;20390;-75
2023/06/16 08:32:23;;;;;;;3.65;2.97;;;27.50;54.50;;;;;;5049321;28;20503;-74
2023/06/16 08:34:49;;;;;;;4.78;3.13;;;27.50;54.50;;;;;;5053105;28;20033;-74
2023/06/16 08:37:16;;;;;;;7.57;3.25;;;27.70;54.50;;;;;;5053147;28;20032;-75
2023/06/16 08:39:43;;;;;;;6.03;3.47;;;27.60;54.40;;;;;;5050087;28;20846;-74
2023/06/16 08:42:12;;;;;;;5.10;3.58;;;27.50;54.40;;;;;;5035663;28;20069;-74
2023/06/16 08:44:39;;;;;;;8.20;3.13;;;27.60;54.40;;;;;;5030535;28;20096;-74
2023/06/16 08:47:08;;;;;;;5.82;3.75;;;27.50;54.30;;;;;;5032539;28;20124;-74
2023/06/16 08:49:34;;;;;;;5.25;3.25;;;27.50;54.30;;;;;;5042211;28;20037;-74
2023/06/16 08:52:03;;;;;;;5.78;3.25;;;27.50;54.30;;;;;;5033764;28;20049;-74
2023/06/16 08:54:36;;;;;;;4.15;3.22;;;27.50;54.30;;;;;;5033979;28;20183;-74
2023/06/16 08:57:04;;;;;;;4.20;2.75;;;27.50;54.30;;;;;;5048605;28;20048;-74
2023/06/16 08:59:32;;;;;;;5.53;3.25;;;27.50;54.30;;;;;;5050218;28;20033;-74
2023/06/16 09:02:01;;;;;;;5.93;3.15;;;27.50;54.30;;;;;;5037196;28;20041;-74
2023/06/16 09:04:28;;;;;;;3.88;3.53;;;27.50;54.20;;;;;;5013574;28;20059;-74
2023/06/16 09:06:56;;;;;;;4.57;2.88;;;27.60;54.20;;;;;;5030027;28;20125;-75
2023/06/16 09:09:23;;;;;;;4.40;3.08;;;27.60;54.20;;;;;;5013392;28;20033;-75
2023/06/16 09:12:08;;;;;;;4.68;3.85;;;27.50;54.20;;;;;;5038894;28;20041;-74
2023/06/16 09:14:37;;;;;;;5.90;3.08;;;27.40;54.30;;;;;;5040216;28;20116;-74
2023/06/16 09:17:05;;;;;;;4.18;3.20;;;27.40;54.30;;;;;;5021131;28;20033;-75
2023/06/16 09:19:48;;;;;;;4.10;3.17;;;27.60;54.30;;;;;;5031272;28;20042;-74
2023/06/16 09:22:22;;;;;;;5.07;2.97;;;27.40;54.30;;;;;;5044747;28;20045;-74
2023/06/16 09:24:56;;;;;;;3.55;3.05;;;27.40;54.40;;;;;;5060029;28;20036;-74
2023/06/16 09:27:26;;;;;;;6.72;3.10;;;27.50;54.50;;;;;;5051606;28;20040;-74
2023/06/16 09:29:59;;;;;;;5.82;3.20;;;27.40;54.50;;;;;;5050928;28;20090;-75
2023/06/16 09:32:34;;;;;;;3.50;2.83;;;27.40;54.50;;;;;;5039181;28;20065;-74
2023/06/16 09:35:21;;;;;;;5.82;2.85;;;27.40;54.60;;;;;;5032074;28;20154;-75
2023/06/16 09:37:52;;;;;;;5.13;3.10;;;27.30;54.60;;;;;;5031754;28;20164;-74
2023/06/16 09:40:20;;;;;;;6.72;3.40;;;27.30;54.60;;;;;;5031891;28;20074;-75
2023/06/16 09:42:48;;;;;;;3.75;2.63;;;27.30;54.60;;;;;;5031051;28;20420;-74
2023/06/16 09:45:16;;;;;;;6.10;3.55;;;27.30;54.60;;;;;;5032281;28;20469;-74
2023/06/16 09:47:47;;;;;;;4.32;3.05;;;27.50;54.70;;;;;;5033292;28;20098;-75
2023/06/16 09:50:14;;;;;;;4.30;3.08;;;27.50;54.70;;;;;;5031856;28;20118;-74
2023/06/16 09:52:44;;;;;;;6.53;3.38;;;27.40;54.70;;;;;;5031638;28;20055;-74
2023/06/16 09:55:11;;;;;;;4.78;3.03;;;27.30;54.70;;;;;;5030772;28;20068;-74
2023/06/16 09:57:39;;;;;;;5.43;2.97;;;27.40;54.60;;;;;;5046977;28;20489;-74
2023/06/16 10:00:15;;;;;;;4.60;3.33;;;27.30;54.60;;;;;;5031159;28;20033;-74
2023/06/16 10:02:48;;;;;;;6.25;2.65;;;27.40;54.60;;;;;;5033743;28;20115;-74
2023/06/16 10:05:18;;;;;;;4.55;2.65;;;27.30;54.60;;;;;;5030660;28;20163;-74
2023/06/16 10:07:50;;;;;;;3.38;2.60;;;27.20;54.70;;;;;;5030553;28;20045;-74
2023/06/16 10:10:25;;;;;;;4.60;3.08;;;27.20;54.70;;;;;;5031835;28;20034;-74
2023/06/16 10:12:53;;;;;;;4.07;3.28;;;27.20;54.70;;;;;;5036262;28;20032;-75
2023/06/16 10:15:25;;;;;;;6.80;3.83;;;27.20;54.70;;;;;;5051803;28;20036;-74
2023/06/16 10:17:52;;;;;;;3.45;2.40;;;27.20;54.80;;;;;;5035273;28;20029;-76
2023/06/16 10:20:22;;;;;;;4.72;3.40;;;27.20;54.80;;;;;;5032087;28;20033;-77
2023/06/16 10:22:49;;;;;;;4.90;3.80;;;27.20;54.80;;;;;;5040912;28;20048;-71
2023/06/16 10:25:15;;;;;;;9.95;3.95;;;27.20;54.90;;;;;;5033670;28;20017;-72
2023/06/16 10:27:42;;;;;;;11.40;4.45;;;27.20;55.90;;;;;;5050143;28;20503;-72
2023/06/16 10:30:16;;;;;;;6.88;3.67;;;27.30;57.40;;;;;;5061965;28;20029;-74
2023/06/16 10:33:13;;;;;;;6.05;4.05;;;27.30;56.70;;;;;;5041565;28;20033;-75
2023/06/16 10:35:52;;;;;;;6.45;4.15;;;27.60;58.40;;;;;;5053318;28;20045;-73
2023/06/16 10:38:24;;;;;;;5.88;4.00;;;27.50;55.90;;;;;;5061492;28;20392;-74
2023/06/16 10:40:54;;;;;;;6.00;3.83;;;27.30;56.40;;;;;;5056456;28;20170;-74
2023/06/16 10:43:26;;;;;;;7.53;4.53;;;27.50;57.70;;;;;;5045658;28;20037;-73
2023/06/16 10:46:14;;;;;;;23.77;6.47;;;27.60;57.30;;;;;;5038391;28;20064;-74
2023/06/16 10:49:05;;;;;;;10.52;4.53;;;27.80;55.80;;;;;;5035273;28;20057;-72
2023/06/16 10:51:44;;;;;;;3.95;3.55;;;27.90;55.80;;;;;;5064224;28;20038;-75
2023/06/16 10:54:12;;;;;;;129.45;27.20;;;27.90;55.70;;;;;;5054391;28;20078;-74
2023/06/16 10:57:03;;;;;;;13.20;5.38;;;28.00;56.30;;;;;;5047217;28;20059;-73
2023/06/16 10:59:33;;;;;;;8.52;5.43;;;28.20;55.70;;;;;;5055312;28;20110;-74
2023/06/16 11:01:59;;;;;;;6.18;4.50;;;28.40;56.70;;;;;;5049460;28;20075;-77
2023/06/16 11:04:26;;;;;;;9.55;5.57;;;28.60;55.80;;;;;;5031607;28;20481;-75
2023/06/16 11:07:03;;;;;;;5.72;5.15;;;28.50;54.80;;;;;;5060385;28;20459;-77
2023/06/16 11:09:30;;;;;;;6.68;4.80;;;28.50;54.50;;;;;;5082327;28;20051;-77
2023/06/16 11:12:04;;;;;;;9.25;4.75;;;28.50;53.40;;;;;;5079880;28;20106;-77
2023/06/16 11:14:31;;;;;;;5.65;4.18;;;28.50;53.50;;;;;;5073310;28;20036;-77
2023/06/16 11:16:58;;;;;;;6.75;4.10;;;28.40;55.00;;;;;;5065454;28;20045;-73
2023/06/16 11:19:24;;;;;;;6.68;4.60;;;28.40;55.10;;;;;;5036855;28;20033;-73
2023/06/16 11:21:50;;;;;;;6.75;3.55;;;28.50;55.90;;;;;;5066354;28;20032;-74
2023/06/16 11:24:18;;;;;;;5.10;4.22;;;28.50;55.00;;;;;;5062686;28;20491;-74
2023/06/16 11:26:44;;;;;;;5.60;4.28;;;28.30;54.70;;;;;;5061505;28;20040;-73
2023/06/16 11:29:10;;;;;;;4.82;3.30;;;28.40;54.40;;;;;;5060758;28;20416;-73
2023/06/16 11:31:37;;;;;;;4.88;3.53;;;28.40;54.40;;;;;;5066222;28;20182;-74
2023/06/16 11:34:05;;;;;;;7.22;4.30;;;28.30;54.50;;;;;;5062883;28;20043;-74
2023/06/16 11:36:35;;;;;;;3.72;3.38;;;28.30;54.50;;;;;;5053247;28;20143;-73
2023/06/16 11:39:04;;;;;;;5.40;3.40;;;28.20;54.50;;;;;;5053263;28;20106;-74
2023/06/16 11:41:30;;;;;;;5.40;3.30;;;28.30;54.50;;;;;;5037219;28;20168;-75
2023/06/16 11:43:57;;;;;;;3.70;3.15;;;28.30;54.50;;;;;;5053661;28;20662;-75
2023/06/16 11:46:28;;;;;;;8.77;3.92;;;28.40;54.50;;;;;;5054055;28;20442;-73
2023/06/16 11:48:54;;;;;;;3.72;3.42;;;28.30;54.50;;;;;;5047197;28;20032;-74
2023/06/16 11:51:22;;;;;;;4.50;3.25;;;28.20;54.50;;;;;;5042948;28;20030;-73
2023/06/16 11:53:48;;;;;;;3.65;2.67;;;28.30;54.50;;;;;;5039827;28;20151;-72
2023/06/16 11:56:16;;;;;;;3.42;3.00;;;28.30;54.50;;;;;;5057024;28;20326;-74
2023/06/16 11:58:44;;;;;;;3.58;3.28;;;28.20;54.60;;;;;;5068751;28;20085;-74
2023/06/16 12:01:14;;;;;;;4.43;2.65;;;28.20;54.70;;;;;;5065113;28;20040;-76
2023/06/16 12:03:41;;;;;;;3.72;3.40;;;28.20;54.70;;;;;;5059701;28;20043;-74
2023/06/16 12:06:08;;;;;;;5.35;3.90;;;28.30;54.70;;;;;;5051664;28;20040;-74
2023/06/16 12:08:41;;;;;;;4.95;3.13;;;28.20;54.80;;;;;;5031752;28;20040;-75
2023/06/16 12:11:10;;;;;;;4.97;3.42;;;28.20;54.90;;;;;;5049352;28;20021;-72
2023/06/16 12:13:37;;;;;;;3.83;3.38;;;28.20;54.80;;;;;;5052278;28;20032;-71
2023/06/16 12:16:10;;;;;;;5.70;3.90;;;28.20;54.80;;;;;;5064076;28;20086;-70
2023/06/16 12:18:36;;;;;;;5.85;4.15;;;28.10;54.80;;;;;;5056225;28;20023;-72
2023/06/16 12:21:22;;;;;;;6.35;4.38;;;28.20;54.80;;;;;;5039466;28;20025;-70
2023/06/16 12:23:49;;;;;;;5.85;4.00;;;28.20;54.90;;;;;;5031794;28;20123;-70
2023/06/16 12:26:53;;;;;;;4.47;3.70;;;27.90;54.50;;;;;;5057009;28;20047;-70
2023/06/16 12:29:20;;;;;;;6.20;3.00;;;28.10;55.10;;;;;;5015753;28;20060;-70
2023/06/16 12:31:57;;;;;;;5.13;2.83;;;28.00;55.00;;;;;;5023688;28;20124;-70
2023/06/16 12:34:28;;;;;;;5.63;3.60;;;28.00;54.90;;;;;;5008037;28;20069;-71
2023/06/16 12:36:58;;;;;;;4.18;3.72;;;28.10;55.00;;;;;;5002088;28;20034;-70
2023/06/16 12:39:24;;;;;;;5.75;3.33;;;28.00;55.10;;;;;;4989575;28;20041;-71
2023/06/16 12:42:05;;;;;;;7.07;3.05;;;28.00;55.20;;;;;;5013426;28;20505;-72
2023/06/16 12:44:51;;;;;;;8.45;3.55;;;27.90;54.70;;;;;;5021367;28;20555;-74
2023/06/16 12:47:20;;;;;;;7.47;4.15;;;28.00;55.20;;;;;;5007360;28;20042;-74
2023/06/16 12:49:46;;;;;;;3.50;2.88;;;28.00;55.30;;;;;;4987037;28;20088;-72
2023/06/16 12:52:13;;;;;;;3.58;2.80;;;27.80;54.80;;;;;;4987886;28;20050;-73
2023/06/16 12:54:39;;;;;;;4.70;3.30;;;27.90;54.80;;;;;;5006315;28;20475;-73